sensor_id;sensor_type;location;lat;lon;timestamp;pressure;altitude;pressure_sealevel;temperature
75273;BMP280;63869;52.344;16.928;2023-03-01T00:01:58;102235.16;;;0.17
75273;BMP280;63869;52.344;16.928;2023-03-01T00:04:23;102247.25;;;0.18
75273;BMP280;63869;52.344;16.928;2023-03-01T00:06:48;102239.13;;;0.15
75273;BMP280;63869;52.344;16.928;2023-03-01T00:09:15;102241.75;;;0.15
75273;BMP280;63869;52.344;16.928;2023-03-01T00:11:41;102247.31;;;0.13
75273;BMP280;63869;52.344;16.928;2023-03-01T00:14:06;102235.31;;;0.07
75273;BMP280;63869;52.344;16.928;2023-03-01T00:16:38;102239.78;;;0.07
75273;BMP280;63869;52.344;16.928;2023-03-01T00:19:05;102242.13;;;0.08
75273;BMP280;63869;52.344;16.928;2023-03-01T00:21:30;102232.97;;;0.06
75273;BMP280;63869;52.344;16.928;2023-03-01T00:23:55;102233.25;;;0.04
75273;BMP280;63869;52.344;16.928;2023-03-01T00:26:22;102232.47;;;0.04
75273;BMP280;63869;52.344;16.928;2023-03-01T00:28:48;102209.47;;;-0.05
75273;BMP280;63869;52.344;16.928;2023-03-01T00:31:16;102229.66;;;0.00
75273;BMP280;63869;52.344;16.928;2023-03-01T00:33:42;102226.50;;;-0.02
75273;BMP280;63869;52.344;16.928;2023-03-01T00:36:09;102223.88;;;-0.02
75273;BMP280;63869;52.344;16.928;2023-03-01T00:38:38;102222.59;;;-0.05
75273;BMP280;63869;52.344;16.928;2023-03-01T00:41:08;102212.97;;;-0.09
75273;BMP280;63869;52.344;16.928;2023-03-01T00:43:34;102208.78;;;-0.10
75273;BMP280;63869;52.344;16.928;2023-03-01T00:46:07;102209.84;;;-0.11
75273;BMP280;63869;52.344;16.928;2023-03-01T00:48:34;102216.94;;;-0.12
75273;BMP280;63869;52.344;16.928;2023-03-01T00:51:27;102208.28;;;-0.12
75273;BMP280;63869;52.344;16.928;2023-03-01T00:53:54;102206.22;;;-0.15
75273;BMP280;63869;52.344;16.928;2023-03-01T00:56:20;102211.50;;;-0.15
75273;BMP280;63869;52.344;16.928;2023-03-01T00:58:46;102205.72;;;-0.17
75273;BMP280;63869;52.344;16.928;2023-03-01T01:01:20;102198.91;;;-0.18
75273;BMP280;63869;52.344;16.928;2023-03-01T01:03:57;102199.47;;;-0.21
75273;BMP280;63869;52.344;16.928;2023-03-01T01:06:25;102198.19;;;-0.24
75273;BMP280;63869;52.344;16.928;2023-03-01T01:08:53;102196.63;;;-0.25
75273;BMP280;63869;52.344;16.928;2023-03-01T01:11:19;102199.56;;;-0.26
75273;BMP280;63869;52.344;16.928;2023-03-01T01:13:46;102194.88;;;-0.29
75273;BMP280;63869;52.344;16.928;2023-03-01T01:16:12;102191.47;;;-0.30
75273;BMP280;63869;52.344;16.928;2023-03-01T01:18:38;102182.53;;;-0.34
75273;BMP280;63869;52.344;16.928;2023-03-01T01:21:06;102196.22;;;-0.32
75273;BMP280;63869;52.344;16.928;2023-03-01T01:23:32;102187.50;;;-0.33
75273;BMP280;63869;52.344;16.928;2023-03-01T01:25:57;102175.25;;;-0.37
75273;BMP280;63869;52.344;16.928;2023-03-01T01:28:22;102189.72;;;-0.40
75273;BMP280;63869;52.344;16.928;2023-03-01T01:30:48;102181.06;;;-0.40
75273;BMP280;63869;52.344;16.928;2023-03-01T01:33:13;102183.50;;;-0.44
75273;BMP280;63869;52.344;16.928;2023-03-01T01:35:38;102177.22;;;-0.48
75273;BMP280;63869;52.344;16.928;2023-03-01T01:38:05;102188.75;;;-0.44
75273;BMP280;63869;52.344;16.928;2023-03-01T01:40:30;102197.69;;;-0.45
75273;BMP280;63869;52.344;16.928;2023-03-01T01:42:55;102182.47;;;-0.48
75273;BMP280;63869;52.344;16.928;2023-03-01T01:45:35;102191.38;;;-0.44
75273;BMP280;63869;52.344;16.928;2023-03-01T01:48:06;102180.91;;;-0.49
75273;BMP280;63869;52.344;16.928;2023-03-01T01:50:38;102191.94;;;-0.47
75273;BMP280;63869;52.344;16.928;2023-03-01T01:53:15;102178.03;;;-0.47
75273;BMP280;63869;52.344;16.928;2023-03-01T01:55:45;102174.59;;;-0.48
75273;BMP280;63869;52.344;16.928;2023-03-01T01:58:14;102156.28;;;-0.53
75273;BMP280;63869;52.344;16.928;2023-03-01T02:00:40;102171.00;;;-0.52
75273;BMP280;63869;52.344;16.928;2023-03-01T02:03:19;102166.81;;;-0.53
75273;BMP280;63869;52.344;16.928;2023-03-01T02:08:26;102165.72;;;-0.52
75273;BMP280;63869;52.344;16.928;2023-03-01T02:10:52;102162.31;;;-0.52
75273;BMP280;63869;52.344;16.928;2023-03-01T02:13:19;102162.63;;;-0.54
75273;BMP280;63869;52.344;16.928;2023-03-01T02:15:45;102142.75;;;-0.60
75273;BMP280;63869;52.344;16.928;2023-03-01T02:18:12;102147.44;;;-0.57
75273;BMP280;63869;52.344;16.928;2023-03-01T02:20:48;102148.50;;;-0.58
75273;BMP280;63869;52.344;16.928;2023-03-01T02:23:16;102138.28;;;-0.60
75273;BMP280;63869;52.344;16.928;2023-03-01T02:28:36;102127.84;;;-0.65
75273;BMP280;63869;52.344;16.928;2023-03-01T02:31:05;102121.31;;;-0.67
75273;BMP280;63869;52.344;16.928;2023-03-01T02:33:49;102120.13;;;-0.75
75273;BMP280;63869;52.344;16.928;2023-03-01T02:36:18;102132.97;;;-0.73
75273;BMP280;63869;52.344;16.928;2023-03-01T02:38:46;102130.13;;;-0.77
75273;BMP280;63869;52.344;16.928;2023-03-01T02:41:15;102126.78;;;-0.82
75273;BMP280;63869;52.344;16.928;2023-03-01T02:43:41;102125.94;;;-0.78
75273;BMP280;63869;52.344;16.928;2023-03-01T02:46:16;102119.13;;;-0.79
75273;BMP280;63869;52.344;16.928;2023-03-01T02:48:48;102116.75;;;-0.80
75273;BMP280;63869;52.344;16.928;2023-03-01T02:54:07;102108.91;;;-0.80
75273;BMP280;63869;52.344;16.928;2023-03-01T02:56:34;102105.78;;;-0.82
75273;BMP280;63869;52.344;16.928;2023-03-01T02:58:59;102101.38;;;-0.87
75273;BMP280;63869;52.344;16.928;2023-03-01T03:01:26;102117.84;;;-0.81
75273;BMP280;63869;52.344;16.928;2023-03-01T03:04:01;102114.22;;;-0.85
75273;BMP280;63869;52.344;16.928;2023-03-01T03:06:30;102117.34;;;-0.83
75273;BMP280;63869;52.344;16.928;2023-03-01T03:08:55;102116.84;;;-0.85
75273;BMP280;63869;52.344;16.928;2023-03-01T03:11:20;102116.84;;;-0.85
75273;BMP280;63869;52.344;16.928;2023-03-01T03:13:46;102114.50;;;-0.87
75273;BMP280;63869;52.344;16.928;2023-03-01T03:16:13;102104.09;;;-0.92
75273;BMP280;63869;52.344;16.928;2023-03-01T03:18:38;102113.22;;;-0.90
75273;BMP280;63869;52.344;16.928;2023-03-01T03:21:07;102102.75;;;-0.90
75273;BMP280;63869;52.344;16.928;2023-03-01T03:23:35;102103.31;;;-0.93
75273;BMP280;63869;52.344;16.928;2023-03-01T03:26:01;102112.75;;;-0.92
75273;BMP280;63869;52.344;16.928;2023-03-01T03:28:27;102106.72;;;-0.92
75273;BMP280;63869;52.344;16.928;2023-03-01T03:30:52;102102.28;;;-0.97
75273;BMP280;63869;52.344;16.928;2023-03-01T03:33:17;102100.72;;;-0.98
75273;BMP280;63869;52.344;16.928;2023-03-01T03:35:46;102100.19;;;-0.95
75273;BMP280;63869;52.344;16.928;2023-03-01T03:38:13;102099.38;;;-0.95
75273;BMP280;63869;52.344;16.928;2023-03-01T03:40:48;102097.03;;;-0.97
75273;BMP280;63869;52.344;16.928;2023-03-01T03:43:20;102097.03;;;-0.97
75273;BMP280;63869;52.344;16.928;2023-03-01T03:45:49;102107.53;;;-0.97
75273;BMP280;63869;52.344;16.928;2023-03-01T03:48:15;102118.03;;;-0.97
75273;BMP280;63869;52.344;16.928;2023-03-01T03:50:41;102109.09;;;-0.96
75273;BMP280;63869;52.344;16.928;2023-03-01T03:53:09;102102.09;;;-1.00
75273;BMP280;63869;52.344;16.928;2023-03-01T03:55:36;102107.06;;;-0.99
75273;BMP280;63869;52.344;16.928;2023-03-01T03:58:05;102116.47;;;-0.98
75273;BMP280;63869;52.344;16.928;2023-03-01T04:00:41;102098.19;;;-1.03
75273;BMP280;63869;52.344;16.928;2023-03-01T04:03:14;102094.50;;;-1.02
75273;BMP280;63869;52.344;16.928;2023-03-01T04:05:40;102097.41;;;-1.03
75273;BMP280;63869;52.344;16.928;2023-03-01T04:08:06;102099.75;;;-1.02
75273;BMP280;63869;52.344;16.928;2023-03-01T04:10:40;102094.50;;;-1.02
75273;BMP280;63869;52.344;16.928;2023-03-01T04:13:09;102089.25;;;-1.02
75273;BMP280;63869;52.344;16.928;2023-03-01T04:15:35;102092.66;;;-1.01
75273;BMP280;63869;52.344;16.928;2023-03-01T04:18:02;102092.66;;;-1.01
75273;BMP280;63869;52.344;16.928;2023-03-01T04:20:29;102085.84;;;-1.02
75273;BMP280;63869;52.344;16.928;2023-03-01T04:23:17;102088.19;;;-1.01
75273;BMP280;63869;52.344;16.928;2023-03-01T04:28:15;102090.81;;;-1.01
75273;BMP280;63869;52.344;16.928;2023-03-01T04:30:44;102084.28;;;-1.03
75273;BMP280;63869;52.344;16.928;2023-03-01T04:33:10;102076.22;;;-1.07
75273;BMP280;63869;52.344;16.928;2023-03-01T04:35:36;102091.66;;;-1.05
75273;BMP280;63869;52.344;16.928;2023-03-01T04:38:03;102098.69;;;-1.01
75273;BMP280;63869;52.344;16.928;2023-03-01T04:40:29;102090.31;;;-1.03
75273;BMP280;63869;52.344;16.928;2023-03-01T04:42:54;102105.00;;;-1.02
75273;BMP280;63869;52.344;16.928;2023-03-01T04:45:19;102096.13;;;-1.06
75273;BMP280;63869;52.344;16.928;2023-03-01T04:47:46;102097.69;;;-1.05
75273;BMP280;63869;52.344;16.928;2023-03-01T04:50:13;102089.81;;;-1.05
75273;BMP280;63869;52.344;16.928;2023-03-01T04:52:39;102085.34;;;-1.04
75273;BMP280;63869;52.344;16.928;2023-03-01T04:55:05;102089.53;;;-1.03
75273;BMP280;63869;52.344;16.928;2023-03-01T04:57:31;102082.22;;;-1.06
75273;BMP280;63869;52.344;16.928;2023-03-01T04:59:57;102089.25;;;-1.02
75273;BMP280;63869;52.344;16.928;2023-03-01T05:02:22;102089.75;;;-1.00
75273;BMP280;63869;52.344;16.928;2023-03-01T05:04:48;102091.59;;;-1.00
75273;BMP280;63869;52.344;16.928;2023-03-01T05:07:14;102094.22;;;-1.00
75273;BMP280;63869;52.344;16.928;2023-03-01T05:09:47;102090.81;;;-1.01
75273;BMP280;63869;52.344;16.928;2023-03-01T05:12:13;102086.13;;;-1.04
75273;BMP280;63869;52.344;16.928;2023-03-01T05:14:39;102092.44;;;-1.05
75273;BMP280;63869;52.344;16.928;2023-03-01T05:17:04;102088.47;;;-1.02
75273;BMP280;63869;52.344;16.928;2023-03-01T05:19:31;102088.47;;;-1.02
75273;BMP280;63869;52.344;16.928;2023-03-01T05:21:57;102083.50;;;-1.04
75273;BMP280;63869;52.344;16.928;2023-03-01T05:24:30;102083.50;;;-1.04
75273;BMP280;63869;52.344;16.928;2023-03-01T05:26:56;102084.28;;;-1.03
75273;BMP280;63869;52.344;16.928;2023-03-01T05:29:23;102083.50;;;-1.04
75273;BMP280;63869;52.344;16.928;2023-03-01T05:31:57;102087.19;;;-1.05
75273;BMP280;63869;52.344;16.928;2023-03-01T05:34:31;102089.81;;;-1.05
75273;BMP280;63869;52.344;16.928;2023-03-01T05:36:57;102083.78;;;-1.05
75273;BMP280;63869;52.344;16.928;2023-03-01T05:39:25;102091.38;;;-1.04
75273;BMP280;63869;52.344;16.928;2023-03-01T05:41:58;102095.06;;;-1.05
75273;BMP280;63869;52.344;16.928;2023-03-01T05:44:24;102088.25;;;-1.06
75273;BMP280;63869;52.344;16.928;2023-03-01T05:46:50;102092.72;;;-1.06
75273;BMP280;63869;52.344;16.928;2023-03-01T05:49:16;102096.63;;;-1.04
75273;BMP280;63869;52.344;16.928;2023-03-01T05:51:42;102096.84;;;-1.00
75273;BMP280;63869;52.344;16.928;2023-03-01T05:54:09;102092.78;;;-1.11
75273;BMP280;63869;52.344;16.928;2023-03-01T05:56:36;102102.47;;;-1.31
75273;BMP280;63869;52.344;16.928;2023-03-01T05:59:03;102111.06;;;-1.49
75273;BMP280;63869;52.344;16.928;2023-03-01T06:01:28;102108.38;;;-1.68
75273;BMP280;63869;52.344;16.928;2023-03-01T06:03:55;102105.91;;;-1.83
75273;BMP280;63869;52.344;16.928;2023-03-01T06:06:21;102096.41;;;-2.03
75273;BMP280;63869;52.344;16.928;2023-03-01T06:08:47;102097.75;;;-2.11
75273;BMP280;63869;52.344;16.928;2023-03-01T06:11:12;102082.75;;;-2.29
75273;BMP280;63869;52.344;16.928;2023-03-01T06:13:38;102086.72;;;-2.37
75273;BMP280;63869;52.344;16.928;2023-03-01T06:16:05;102082.09;;;-2.50
75273;BMP280;63869;52.344;16.928;2023-03-01T06:18:31;102082.09;;;-2.50
75273;BMP280;63869;52.344;16.928;2023-03-01T06:20:56;102066.47;;;-2.65
75273;BMP280;63869;52.344;16.928;2023-03-01T06:23:23;102081.38;;;-2.60
75273;BMP280;63869;52.344;16.928;2023-03-01T06:25:48;102083.19;;;-2.56
75273;BMP280;63869;52.344;16.928;2023-03-01T06:28:14;102079.28;;;-2.58
75273;BMP280;63869;52.344;16.928;2023-03-01T06:30:40;102079.75;;;-2.51
75273;BMP280;63869;52.344;16.928;2023-03-01T06:33:06;102083.88;;;-2.45
75273;BMP280;63869;52.344;16.928;2023-03-01T06:35:31;102084.88;;;-2.36
75273;BMP280;63869;52.344;16.928;2023-03-01T06:37:58;102081.63;;;-2.23
75273;BMP280;63869;52.344;16.928;2023-03-01T06:40:24;102080.75;;;-2.13
75273;BMP280;63869;52.344;16.928;2023-03-01T06:42:50;102080.41;;;-2.01
75273;BMP280;63869;52.344;16.928;2023-03-01T06:45:20;102079.22;;;-1.90
75273;BMP280;63869;52.344;16.928;2023-03-01T06:47:46;102068.72;;;-1.85
75273;BMP280;63869;52.344;16.928;2023-03-01T06:50:13;102076.72;;;-1.71
75273;BMP280;63869;52.344;16.928;2023-03-01T06:52:38;102062.97;;;-1.63
75273;BMP280;63869;52.344;16.928;2023-03-01T06:55:04;102066.56;;;-1.54
75273;BMP280;63869;52.344;16.928;2023-03-01T06:57:31;102060.38;;;-1.44
75273;BMP280;63869;52.344;16.928;2023-03-01T06:59:56;102061.63;;;-1.37
75273;BMP280;63869;52.344;16.928;2023-03-01T07:02:21;102076.44;;;-1.27
75273;BMP280;63869;52.344;16.928;2023-03-01T07:04:49;102083.22;;;-1.21
75273;BMP280;63869;52.344;16.928;2023-03-01T07:07:15;102085.75;;;-1.16
75273;BMP280;63869;52.344;16.928;2023-03-01T07:09:40;102068.47;;;-1.17
75273;BMP280;63869;52.344;16.928;2023-03-01T07:12:06;102069.59;;;-1.04
75273;BMP280;63869;52.344;16.928;2023-03-01T07:14:31;102069.81;;;-1.01
75273;BMP280;63869;52.344;16.928;2023-03-01T07:16:56;102067.09;;;-0.96
75273;BMP280;63869;52.344;16.928;2023-03-01T07:19:22;102078.03;;;-0.88
75273;BMP280;63869;52.344;16.928;2023-03-01T07:21:48;102082.59;;;-0.75
75273;BMP280;63869;52.344;16.928;2023-03-01T07:24:13;102087.75;;;-0.70
75273;BMP280;63869;52.344;16.928;2023-03-01T07:26:39;102083.00;;;-0.68
75273;BMP280;63869;52.344;16.928;2023-03-01T07:29:06;102095.09;;;-0.53
75273;BMP280;63869;52.344;16.928;2023-03-01T07:31:32;102092.03;;;-0.42
75273;BMP280;63869;52.344;16.928;2023-03-01T07:33:57;102089.19;;;-0.26
75273;BMP280;63869;52.344;16.928;2023-03-01T07:36:23;102097.41;;;-0.14
75273;BMP280;63869;52.344;16.928;2023-03-01T07:38:48;102098.75;;;-0.03
75273;BMP280;63869;52.344;16.928;2023-03-01T07:41:14;102093.81;;;0.09
75273;BMP280;63869;52.344;16.928;2023-03-01T07:43:39;102091.78;;;0.20
75273;BMP280;63869;52.344;16.928;2023-03-01T07:46:05;102098.09;;;0.33
75273;BMP280;63869;52.344;16.928;2023-03-01T07:48:31;102092.44;;;0.39
75273;BMP280;63869;52.344;16.928;2023-03-01T07:51:01;102097.22;;;0.51
75273;BMP280;63869;52.344;16.928;2023-03-01T07:53:27;102099.63;;;0.61
75273;BMP280;63869;52.344;16.928;2023-03-01T07:56:10;102101.09;;;0.67
75273;BMP280;63869;52.344;16.928;2023-03-01T07:58:38;102099.22;;;0.81
75273;BMP280;63869;52.344;16.928;2023-03-01T08:01:05;102093.44;;;0.93
75273;BMP280;63869;52.344;16.928;2023-03-01T08:03:31;102098.06;;;1.10
75273;BMP280;63869;52.344;16.928;2023-03-01T08:05:59;102096.47;;;1.23
75273;BMP280;63869;52.344;16.928;2023-03-01T08:08:25;102105.38;;;1.35
75273;BMP280;63869;52.344;16.928;2023-03-01T08:10:50;102099.28;;;1.48
75273;BMP280;63869;52.344;16.928;2023-03-01T08:13:16;102087.06;;;1.52
75273;BMP280;63869;52.344;16.928;2023-03-01T08:15:41;102093.69;;;1.72
75273;BMP280;63869;52.344;16.928;2023-03-01T08:18:06;102094.97;;;1.83
75273;BMP280;63869;52.344;16.928;2023-03-01T08:20:32;102085.53;;;1.91
75273;BMP280;63869;52.344;16.928;2023-03-01T08:22:57;102089.00;;;2.00
75273;BMP280;63869;52.344;16.928;2023-03-01T08:25:23;102094.78;;;2.11
75273;BMP280;63869;52.344;16.928;2023-03-01T08:27:48;102085.34;;;2.19
75273;BMP280;63869;52.344;16.928;2023-03-01T08:30:13;102079.63;;;2.25
75273;BMP280;63869;52.344;16.928;2023-03-01T08:32:39;102086.94;;;2.37
75273;BMP280;63869;52.344;16.928;2023-03-01T08:35:05;102090.81;;;2.48
75273;BMP280;63869;52.344;16.928;2023-03-01T08:37:30;102087.13;;;2.58
75273;BMP280;63869;52.344;16.928;2023-03-01T08:39:59;102092.06;;;2.68
75273;BMP280;63869;52.344;16.928;2023-03-01T08:42:24;102096.44;;;2.81
75273;BMP280;63869;52.344;16.928;2023-03-01T08:44:49;102087.16;;;2.92
75273;BMP280;63869;52.344;16.928;2023-03-01T08:47:14;102091.47;;;3.05
75273;BMP280;63869;52.344;16.928;2023-03-01T08:49:40;102083.53;;;3.14
75273;BMP280;63869;52.344;16.928;2023-03-01T08:52:05;102072.63;;;3.24
75273;BMP280;63869;52.344;16.928;2023-03-01T08:54:30;102074.50;;;3.32
75273;BMP280;63869;52.344;16.928;2023-03-01T08:56:56;102073.88;;;3.35
75273;BMP280;63869;52.344;16.928;2023-03-01T08:59:25;102067.31;;;3.42
75273;BMP280;63869;52.344;16.928;2023-03-01T09:01:50;102067.47;;;3.45
75273;BMP280;63869;52.344;16.928;2023-03-01T09:04:16;102066.78;;;3.57
75273;BMP280;63869;52.344;16.928;2023-03-01T09:06:41;102070.81;;;3.72
75273;BMP280;63869;52.344;16.928;2023-03-01T09:09:13;102063.31;;;3.74
75273;BMP280;63869;52.344;16.928;2023-03-01T09:11:40;102065.16;;;3.82
75273;BMP280;63869;52.344;16.928;2023-03-01T09:14:06;102067.75;;;3.90
75273;BMP280;63869;52.344;16.928;2023-03-01T09:16:32;102054.22;;;3.92
75273;BMP280;63869;52.344;16.928;2023-03-01T09:19:01;102062.22;;;4.04
75273;BMP280;63869;52.344;16.928;2023-03-01T09:21:27;102048.66;;;4.14
75273;BMP280;63869;52.344;16.928;2023-03-01T09:23:52;102055.56;;;4.27
75273;BMP280;63869;52.344;16.928;2023-03-01T09:26:20;102041.81;;;4.34
75273;BMP280;63869;52.344;16.928;2023-03-01T09:28:47;102041.41;;;4.44
75273;BMP280;63869;52.344;16.928;2023-03-01T09:31:15;102042.00;;;4.50
75273;BMP280;63869;52.344;16.928;2023-03-01T09:33:42;102046.56;;;4.61
75273;BMP280;63869;52.344;16.928;2023-03-01T09:36:11;102057.09;;;4.70
75273;BMP280;63869;52.344;16.928;2023-03-01T09:38:39;102058.78;;;4.75
75273;BMP280;63869;52.344;16.928;2023-03-01T09:41:22;102056.03;;;4.83
75273;BMP280;63869;52.344;16.928;2023-03-01T09:46:40;102053.41;;;4.95
75273;BMP280;63869;52.344;16.928;2023-03-01T09:49:13;102047.72;;;5.06
75273;BMP280;63869;52.344;16.928;2023-03-01T09:51:43;102041.84;;;5.12
75273;BMP280;63869;52.344;16.928;2023-03-01T09:54:11;102043.88;;;5.27
75273;BMP280;63869;52.344;16.928;2023-03-01T09:56:43;102046.56;;;5.40
75273;BMP280;63869;52.344;16.928;2023-03-01T10:01:54;102050.50;;;5.46
75273;BMP280;63869;52.344;16.928;2023-03-01T10:09:49;102055.28;;;5.52
75273;BMP280;63869;52.344;16.928;2023-03-01T10:12:20;102048.09;;;5.53
75273;BMP280;63869;52.344;16.928;2023-03-01T10:20:29;102055.41;;;5.56
75273;BMP280;63869;52.344;16.928;2023-03-01T10:22:57;102044.09;;;5.59
75273;BMP280;63869;52.344;16.928;2023-03-01T10:31:15;102031.72;;;6.00
75273;BMP280;63869;52.344;16.928;2023-03-01T10:33:43;102031.97;;;6.10
75273;BMP280;63869;52.344;16.928;2023-03-01T10:36:09;102024.75;;;6.23
75273;BMP280;63869;52.344;16.928;2023-03-01T10:38:53;102030.66;;;6.44
75273;BMP280;63869;52.344;16.928;2023-03-01T10:41:20;102025.88;;;6.50
75273;BMP280;63869;52.344;16.928;2023-03-01T10:43:57;102030.41;;;6.49
75273;BMP280;63869;52.344;16.928;2023-03-01T10:46:36;102021.00;;;6.52
75273;BMP280;63869;52.344;16.928;2023-03-01T10:49:22;102021.38;;;6.66
75273;BMP280;63869;52.344;16.928;2023-03-01T10:51:50;102012.38;;;6.71
75273;BMP280;63869;52.344;16.928;2023-03-01T10:54:29;102014.88;;;6.79
75273;BMP280;63869;52.344;16.928;2023-03-01T10:56:57;102011.47;;;6.79
75273;BMP280;63869;52.344;16.928;2023-03-01T11:02:14;102007.91;;;6.75
75273;BMP280;63869;52.344;16.928;2023-03-01T11:04:56;102003.47;;;6.79
75273;BMP280;63869;52.344;16.928;2023-03-01T11:07:21;102002.03;;;6.81
75273;BMP280;63869;52.344;16.928;2023-03-01T11:09:47;102009.78;;;6.74
75273;BMP280;63869;52.344;16.928;2023-03-01T11:12:16;102003.97;;;6.69
75273;BMP280;63869;52.344;16.928;2023-03-01T11:14:53;101997.19;;;6.71
75273;BMP280;63869;52.344;16.928;2023-03-01T11:17:27;101991.41;;;6.81
75273;BMP280;63869;52.344;16.928;2023-03-01T11:20:38;101993.78;;;6.86
75273;BMP280;63869;52.344;16.928;2023-03-01T11:23:12;101994.41;;;6.96
75273;BMP280;63869;52.344;16.928;2023-03-01T11:25:53;101989.50;;;6.98
75273;BMP280;63869;52.344;16.928;2023-03-01T11:28:20;101989.16;;;6.99
75273;BMP280;63869;52.344;16.928;2023-03-01T11:30:59;101977.56;;;7.07
75273;BMP280;63869;52.344;16.928;2023-03-01T11:33:49;101973.78;;;7.08
75273;BMP280;63869;52.344;16.928;2023-03-01T11:36:39;101966.06;;;7.03
75273;BMP280;63869;52.344;16.928;2023-03-01T11:39:39;101969.69;;;7.11
75273;BMP280;63869;52.344;16.928;2023-03-01T11:42:47;101973.88;;;7.12
75273;BMP280;63869;52.344;16.928;2023-03-01T11:45:10;101971.22;;;7.12
75273;BMP280;63869;52.344;16.928;2023-03-01T11:47:56;101962.03;;;7.09
75273;BMP280;63869;52.344;16.928;2023-03-01T11:50:29;101957.16;;;7.11
75273;BMP280;63869;52.344;16.928;2023-03-01T11:58:43;101966.97;;;7.42
75273;BMP280;63869;52.344;16.928;2023-03-01T12:11:48;101947.59;;;7.61
75273;BMP280;63869;52.344;16.928;2023-03-01T12:17:32;101939.94;;;7.59
75273;BMP280;63869;52.344;16.928;2023-03-01T12:40:09;101908.28;;;8.16
75273;BMP280;63869;52.344;16.928;2023-03-01T12:42:53;101914.56;;;8.27
75273;BMP280;63869;52.344;16.928;2023-03-01T12:50:51;101910.16;;;8.84
75273;BMP280;63869;52.344;16.928;2023-03-01T12:53:29;101908.09;;;9.00
75273;BMP280;63869;52.344;16.928;2023-03-01T12:55:58;101908.22;;;9.11
75273;BMP280;63869;52.344;16.928;2023-03-01T12:58:55;101913.06;;;9.31
75273;BMP280;63869;52.344;16.928;2023-03-01T13:04:30;101899.06;;;9.75
75273;BMP280;63869;52.344;16.928;2023-03-01T13:07:11;101904.66;;;10.00
75273;BMP280;63869;52.344;16.928;2023-03-01T13:09:55;101898.72;;;10.21
75273;BMP280;63869;52.344;16.928;2023-03-01T13:15:35;101901.31;;;10.61
75273;BMP280;63869;52.344;16.928;2023-03-01T13:23:23;101874.56;;;10.58
75273;BMP280;63869;52.344;16.928;2023-03-01T13:30:56;101852.09;;;10.73
75273;BMP280;63869;52.344;16.928;2023-03-01T13:35:54;101869.63;;;10.70
75273;BMP280;63869;52.344;16.928;2023-03-01T13:39:40;101869.63;;;10.70
75273;BMP280;63869;52.344;16.928;2023-03-01T13:52:00;101852.88;;;10.74
75273;BMP280;63869;52.344;16.928;2023-03-01T13:54:29;101845.69;;;10.95
75273;BMP280;63869;52.344;16.928;2023-03-01T13:56:55;101851.47;;;11.12
75273;BMP280;63869;52.344;16.928;2023-03-01T13:59:22;101838.47;;;11.17
75273;BMP280;63869;52.344;16.928;2023-03-01T14:01:54;101836.22;;;11.26
75273;BMP280;63869;52.344;16.928;2023-03-01T14:04:30;101837.03;;;11.37
75273;BMP280;63869;52.344;16.928;2023-03-01T14:10:01;101848.16;;;11.86
75273;BMP280;63869;52.344;16.928;2023-03-01T14:12:43;101847.03;;;11.90
75273;BMP280;63869;52.344;16.928;2023-03-01T14:15:26;101845.13;;;11.76
75273;BMP280;63869;52.344;16.928;2023-03-01T14:20:28;101846.63;;;12.02
75273;BMP280;63869;52.344;16.928;2023-03-01T14:22:59;101843.88;;;12.27
75273;BMP280;63869;52.344;16.928;2023-03-01T14:25:27;101843.06;;;12.55
75273;BMP280;63869;52.344;16.928;2023-03-01T14:27:55;101843.38;;;12.78
75273;BMP280;63869;52.344;16.928;2023-03-01T14:32:56;101844.06;;;12.97
75273;BMP280;63869;52.344;16.928;2023-03-01T14:35:23;101838.34;;;12.95
75273;BMP280;63869;52.344;16.928;2023-03-01T14:37:48;101828.38;;;12.88
75273;BMP280;63869;52.344;16.928;2023-03-01T14:40:28;101826.47;;;12.85
75273;BMP280;63869;52.344;16.928;2023-03-01T14:42:55;101825.75;;;12.81
75273;BMP280;63869;52.344;16.928;2023-03-01T14:45:21;101830.72;;;12.75
75273;BMP280;63869;52.344;16.928;2023-03-01T14:47:47;101824.22;;;12.69
75273;BMP280;63869;52.344;16.928;2023-03-01T14:50:19;101834.97;;;12.73
75273;BMP280;63869;52.344;16.928;2023-03-01T14:52:46;101837.19;;;12.89
75273;BMP280;63869;52.344;16.928;2023-03-01T14:55:16;101827.09;;;13.10
75273;BMP280;63869;52.344;16.928;2023-03-01T14:57:44;101831.72;;;13.10
75273;BMP280;63869;52.344;16.928;2023-03-01T15:00:16;101826.34;;;13.06
75273;BMP280;63869;52.344;16.928;2023-03-01T15:02:43;101821.66;;;13.21
75273;BMP280;63869;52.344;16.928;2023-03-01T15:05:08;101818.50;;;13.33
75273;BMP280;63869;52.344;16.928;2023-03-01T15:07:35;101820.81;;;13.31
75273;BMP280;63869;52.344;16.928;2023-03-01T15:10:02;101827.41;;;13.19
75273;BMP280;63869;52.344;16.928;2023-03-01T15:14:53;101820.38;;;13.36
75273;BMP280;63869;52.344;16.928;2023-03-01T15:17:37;101814.97;;;13.47
75273;BMP280;63869;52.344;16.928;2023-03-01T15:20:13;101827.97;;;13.48
75273;BMP280;63869;52.344;16.928;2023-03-01T15:22:43;101829.56;;;13.46
75273;BMP280;63869;52.344;16.928;2023-03-01T15:25:20;101819.63;;;13.39
75273;BMP280;63869;52.344;16.928;2023-03-01T15:27:46;101823.94;;;13.26
75273;BMP280;63869;52.344;16.928;2023-03-01T15:30:45;101823.88;;;13.33
75273;BMP280;63869;52.344;16.928;2023-03-01T15:33:37;101817.28;;;13.45
75273;BMP280;63869;52.344;16.928;2023-03-01T15:35:59;101815.81;;;13.33
75273;BMP280;63869;52.344;16.928;2023-03-01T16:18:45;101806.06;;;11.51
75273;BMP280;63869;52.344;16.928;2023-03-01T16:21:19;101805.25;;;11.39
75273;BMP280;63869;52.344;16.928;2023-03-01T16:23:44;101797.59;;;11.20
75273;BMP280;63869;52.344;16.928;2023-03-01T16:26:10;101800.94;;;10.96
75273;BMP280;63869;52.344;16.928;2023-03-01T16:28:36;101797.38;;;10.63
75273;BMP280;63869;52.344;16.928;2023-03-01T16:31:01;101800.34;;;10.41
75273;BMP280;63869;52.344;16.928;2023-03-01T16:33:27;101798.66;;;10.22
75273;BMP280;63869;52.344;16.928;2023-03-01T16:35:52;101792.78;;;9.95
75273;BMP280;63869;52.344;16.928;2023-03-01T16:38:18;101791.38;;;9.68
75273;BMP280;63869;52.344;16.928;2023-03-01T16:40:48;101785.41;;;9.41
75273;BMP280;63869;52.344;16.928;2023-03-01T16:43:14;101789.38;;;9.17